Terminal Aerodrome Forecast
Issued by NWS

Home | Current Version | Previous Version | Text Only | Print | Product List | Glossary On
Versions: 1 2 3 4 5 6 7 8 9 10 11 12 13 14 15 16 17 18 19 20 21 22 23 24 25 26 27 28 29 30
245
FTUS44 KFWD 232341
TAFFTW
TAF
KFTW 232341Z 2400/2424 02007KT P6SM SCT060 BKN120
     FM240600 07005KT P6SM VCSH SCT060 BKN100
     FM241200 08006KT P6SM BKN020
     FM241800 08009KT P6SM VCSH BKN060=

USA.gov is the U.S. government's official web portal to all federal, state and local government web resources and services.